createdAt,value
2023-06-01T00:00:02.158Z,2.28
2023-06-01T00:02:33.512Z,2.15
2023-06-01T00:05:01.229Z,2.75
2023-06-01T00:07:31.177Z,2.15
2023-06-01T00:09:58.938Z,2.90
2023-06-01T00:12:26.970Z,2.70
2023-06-01T00:14:54.877Z,2.67
2023-06-01T00:17:24.063Z,2.50
2023-06-01T00:19:54.245Z,2.65
2023-06-01T00:22:22.060Z,2.70
2023-06-01T00:24:49.638Z,2.53
2023-06-01T00:27:17.367Z,2.60
2023-06-01T00:29:45.064Z,2.67
2023-06-01T00:32:14.328Z,2.30
2023-06-01T00:34:41.954Z,3.13
2023-06-01T00:37:10.166Z,3.22
2023-06-01T00:39:37.946Z,2.50
2023-06-01T00:44:51.684Z,2.42
2023-06-01T00:47:19.497Z,2.55
2023-06-01T00:49:47.986Z,2.33
2023-06-01T00:52:16.345Z,2.88
2023-06-01T00:54:44.223Z,2.28
2023-06-01T00:57:11.927Z,2.20
2023-06-01T00:59:39.665Z,2.22
2023-06-01T01:02:09.437Z,2.40
2023-06-01T01:04:38.795Z,2.50
2023-06-01T01:07:43.704Z,1.90
2023-06-01T01:10:32.864Z,2.42
2023-06-01T01:13:08.790Z,2.40
2023-06-01T01:16:08.317Z,2.45
2023-06-01T01:19:14.186Z,1.98
2023-06-01T01:21:48.618Z,2.60
2023-06-01T01:24:51.141Z,2.50
2023-06-01T01:27:32.525Z,2.60
2023-06-01T01:30:07.352Z,2.47
2023-06-01T01:32:37.067Z,2.53
2023-06-01T01:35:06.704Z,2.58
2023-06-01T01:37:35.237Z,2.85
2023-06-01T01:40:03.445Z,2.20
2023-06-01T01:42:31.560Z,2.35
2023-06-01T01:44:59.635Z,2.22
2023-06-01T01:47:42.731Z,2.72
2023-06-01T01:50:13.338Z,2.17
2023-06-01T01:52:43.370Z,1.90
2023-06-01T01:55:12.276Z,2.22
2023-06-01T01:57:42.160Z,2.25
2023-06-01T02:00:12.798Z,2.30
2023-06-01T02:02:47.011Z,1.90
2023-06-01T02:05:14.997Z,2.17
2023-06-01T02:07:42.648Z,2.00
2023-06-01T02:10:10.754Z,2.08
2023-06-01T02:12:39.090Z,2.20
2023-06-01T02:15:07.595Z,2.10
2023-06-01T02:17:36.172Z,1.90
2023-06-01T02:20:04.255Z,2.38
2023-06-01T02:22:33.326Z,2.53
2023-06-01T02:25:01.162Z,1.98
2023-06-01T02:27:28.911Z,2.28
2023-06-01T02:29:56.632Z,2.22
2023-06-01T02:32:24.228Z,2.10
2023-06-01T02:34:51.867Z,2.30
2023-06-01T02:37:19.740Z,2.10
2023-06-01T02:39:48.555Z,2.10
2023-06-01T02:42:16.550Z,1.88
2023-06-01T02:44:44.168Z,2.08
2023-06-01T02:47:12.087Z,1.90
2023-06-01T02:49:39.801Z,2.28
2023-06-01T02:52:07.658Z,1.63
2023-06-01T02:54:35.219Z,2.28
2023-06-01T02:57:13.696Z,2.00
2023-06-01T02:59:45.974Z,2.00
2023-06-01T03:02:13.815Z,1.83
2023-06-01T03:04:41.483Z,1.75
2023-06-01T03:07:09.000Z,1.98
2023-06-01T03:09:44.889Z,1.38
2023-06-01T03:12:36.377Z,1.60
2023-06-01T03:15:05.668Z,2.00
2023-06-01T03:17:34.462Z,1.77
2023-06-01T03:20:05.408Z,1.75
2023-06-01T03:22:33.141Z,1.80
2023-06-01T03:25:01.472Z,2.05
2023-06-01T03:27:33.143Z,1.50
2023-06-01T03:30:02.876Z,1.63
2023-06-01T03:32:33.936Z,2.20
2023-06-01T03:35:02.065Z,2.58
2023-06-01T03:37:31.604Z,1.70
2023-06-01T03:39:59.379Z,1.67
2023-06-01T03:42:32.003Z,1.60
2023-06-01T03:44:59.875Z,1.35
2023-06-01T03:47:28.024Z,1.90
2023-06-01T03:49:55.872Z,1.80
2023-06-01T03:52:23.574Z,1.60
2023-06-01T03:54:51.395Z,1.70
2023-06-01T04:03:00.056Z,1.67
2023-06-01T04:05:28.922Z,1.58
2023-06-01T04:07:57.277Z,1.65
2023-06-01T04:10:25.262Z,1.55
2023-06-01T04:12:53.704Z,1.75
2023-06-01T04:15:25.629Z,1.80
2023-06-01T04:17:53.301Z,1.77
2023-06-01T04:20:21.816Z,2.10
2023-06-01T04:22:49.429Z,1.90
2023-06-01T04:25:21.846Z,1.90
2023-06-01T04:27:56.105Z,2.30
2023-06-01T04:30:26.987Z,2.05
2023-06-01T04:32:56.075Z,2.40
2023-06-01T04:35:24.384Z,2.20
2023-06-01T04:37:52.443Z,2.40
2023-06-01T04:40:20.161Z,3.45
2023-06-01T04:42:52.779Z,2.20
2023-06-01T04:45:21.561Z,3.20
2023-06-01T04:47:49.422Z,3.22
2023-06-01T04:50:30.925Z,2.58
2023-06-01T04:52:59.960Z,2.75
2023-06-01T04:55:29.216Z,2.35
2023-06-01T04:57:59.054Z,2.55
2023-06-01T05:00:26.689Z,2.20
2023-06-01T05:02:54.427Z,2.42
2023-06-01T05:05:22.168Z,2.70
2023-06-01T05:07:50.360Z,2.10
2023-06-01T05:10:18.945Z,2.38
2023-06-01T05:12:49.422Z,2.30
2023-06-01T05:15:19.174Z,2.20
2023-06-01T05:17:50.936Z,2.47
2023-06-01T05:20:20.751Z,2.22
2023-06-01T05:22:53.835Z,1.95
2023-06-01T05:25:21.670Z,2.65
2023-06-01T05:27:49.399Z,2.10
2023-06-01T05:30:17.079Z,2.80
2023-06-01T05:32:47.097Z,2.75
2023-06-01T05:35:17.945Z,2.90
2023-06-01T05:37:47.098Z,3.33
2023-06-01T05:40:15.955Z,3.25
2023-06-01T05:42:43.886Z,3.17
2023-06-01T05:45:11.994Z,2.90
2023-06-01T05:47:39.756Z,2.97
2023-06-01T05:50:07.652Z,2.50
2023-06-01T05:52:36.128Z,5.80
2023-06-01T05:55:05.032Z,3.08
2023-06-01T05:57:33.094Z,2.03
2023-06-01T06:00:01.629Z,2.42
2023-06-01T06:02:30.491Z,2.00
2023-06-01T06:04:58.229Z,2.15
2023-06-01T06:07:25.840Z,2.70
2023-06-01T06:09:53.440Z,2.63
2023-06-01T06:12:21.448Z,1.80
2023-06-01T06:14:50.186Z,1.75
2023-06-01T06:17:18.143Z,2.17
2023-06-01T06:19:45.918Z,2.10
2023-06-01T06:22:13.502Z,1.80
2023-06-01T06:24:41.229Z,1.77
2023-06-01T06:27:12.137Z,1.95
2023-06-01T06:29:41.350Z,2.10
2023-06-01T06:32:09.266Z,1.80
2023-06-01T06:34:37.752Z,1.98
2023-06-01T06:37:09.707Z,1.80
2023-06-01T06:39:42.755Z,1.45
2023-06-01T06:42:13.954Z,1.90
2023-06-01T06:44:44.489Z,2.17
2023-06-01T06:47:21.454Z,2.17
2023-06-01T06:49:52.579Z,2.05
2023-06-01T06:52:21.998Z,1.83
2023-06-01T06:54:52.331Z,1.92
2023-06-01T06:57:20.884Z,2.10
2023-06-01T06:59:48.477Z,1.90
2023-06-01T07:02:16.363Z,1.80
2023-06-01T07:04:44.223Z,2.00
2023-06-01T07:07:11.849Z,1.90
2023-06-01T07:09:39.620Z,2.28
2023-06-01T07:12:07.679Z,1.67
2023-06-01T07:14:35.794Z,1.80
2023-06-01T07:17:04.277Z,1.73
2023-06-01T07:19:34.536Z,2.58
2023-06-01T07:22:03.367Z,1.77
2023-06-01T07:24:31.335Z,2.10
2023-06-01T07:26:59.044Z,1.70
2023-06-01T07:29:27.448Z,1.80
2023-06-01T07:31:55.370Z,1.83
2023-06-01T07:34:23.102Z,1.60
2023-06-01T07:36:50.998Z,1.85
2023-06-01T07:39:20.918Z,1.75
2023-06-01T07:41:50.116Z,1.85
2023-06-01T07:44:19.456Z,1.65
2023-06-01T07:46:47.894Z,1.85
2023-06-01T07:49:16.573Z,1.92
2023-06-01T07:51:44.834Z,2.20
2023-06-01T07:54:12.724Z,1.77
2023-06-01T07:56:40.681Z,1.70
2023-06-01T07:59:08.374Z,1.80
2023-06-01T08:01:38.741Z,2.40
2023-06-01T08:04:06.993Z,1.77
2023-06-01T08:06:37.138Z,1.50
2023-06-01T08:09:05.330Z,1.60
2023-06-01T08:11:34.415Z,1.95
2023-06-01T08:14:02.020Z,2.13
2023-06-01T08:16:30.353Z,1.60
2023-06-01T08:18:58.170Z,1.55
2023-06-01T08:21:26.281Z,2.28
2023-06-01T08:23:57.329Z,1.70
2023-06-01T08:26:25.459Z,1.40
2023-06-01T08:28:54.202Z,1.85
2023-06-01T08:31:24.021Z,1.50
2023-06-01T08:34:00.155Z,1.40
2023-06-01T08:36:32.736Z,1.65
2023-06-01T08:39:01.742Z,1.80
2023-06-01T08:41:46.237Z,1.75
2023-06-01T08:44:15.865Z,1.60
2023-06-01T08:46:44.182Z,1.70
2023-06-01T08:49:14.488Z,1.58
2023-06-01T08:51:44.331Z,1.67
2023-06-01T08:54:16.391Z,2.40
2023-06-01T08:56:44.661Z,1.67
2023-06-01T08:59:15.016Z,1.90
2023-06-01T09:01:43.807Z,2.72
2023-06-01T09:04:11.593Z,2.03
2023-06-01T09:06:39.256Z,1.80
2023-06-01T09:09:12.207Z,1.95
2023-06-01T09:11:40.418Z,1.80
2023-06-01T09:14:34.323Z,1.73
2023-06-01T09:17:02.673Z,2.00
2023-06-01T09:19:43.570Z,1.52
2023-06-01T09:22:13.368Z,2.38
2023-06-01T09:24:44.278Z,1.90
2023-06-01T09:27:12.028Z,2.03
2023-06-01T09:29:56.368Z,1.98
2023-06-01T09:32:25.450Z,1.60
2023-06-01T09:34:53.283Z,1.80
2023-06-01T09:37:21.077Z,1.60
2023-06-01T09:39:48.748Z,1.45
2023-06-01T09:42:16.820Z,1.70
2023-06-01T09:44:44.614Z,2.00
2023-06-01T09:47:14.122Z,1.60
2023-06-01T09:49:43.896Z,1.80
2023-06-01T09:52:16.238Z,1.95
2023-06-01T09:54:49.849Z,1.63
2023-06-01T09:57:25.705Z,2.15
2023-06-01T09:59:53.421Z,2.17
2023-06-01T10:02:23.045Z,2.13
2023-06-01T10:04:58.489Z,1.48
2023-06-01T10:07:38.713Z,1.95
2023-06-01T10:10:07.007Z,1.90
2023-06-01T10:12:35.703Z,1.70
2023-06-01T10:15:26.215Z,2.05
2023-06-01T10:18:00.138Z,1.85
2023-06-01T10:20:28.066Z,1.70
2023-06-01T10:22:55.905Z,1.50
2023-06-01T10:25:26.192Z,1.92
2023-06-01T10:28:02.308Z,1.50
2023-06-01T10:30:30.204Z,2.03
2023-06-01T10:32:57.907Z,1.58
2023-06-01T10:35:32.209Z,1.90
2023-06-01T10:38:16.701Z,1.73
2023-06-01T10:40:47.134Z,1.65
2023-06-01T10:43:37.170Z,1.70
2023-06-01T10:46:24.967Z,1.50
2023-06-01T10:48:59.358Z,1.35
2023-06-01T10:51:27.285Z,1.88
2023-06-01T10:53:55.911Z,2.05
2023-06-01T10:56:28.420Z,1.70
2023-06-01T10:59:22.527Z,1.70
2023-06-01T11:01:50.911Z,1.95
2023-06-01T11:04:37.215Z,1.60
2023-06-01T11:09:51.309Z,1.98
2023-06-01T11:12:22.534Z,1.70
2023-06-01T11:15:09.636Z,1.80
2023-06-01T11:17:37.310Z,1.73
2023-06-01T11:20:11.800Z,1.58
2023-06-01T11:22:39.823Z,1.60
2023-06-01T11:25:09.589Z,1.90
2023-06-01T11:27:38.021Z,1.98
2023-06-01T11:30:06.395Z,1.65
2023-06-01T11:32:37.794Z,1.67
2023-06-01T11:35:17.512Z,1.83
2023-06-01T11:37:45.354Z,1.90
2023-06-01T11:40:14.868Z,2.00
2023-06-01T11:42:42.702Z,1.58
2023-06-01T11:45:16.676Z,1.52
2023-06-01T11:47:47.096Z,1.80
2023-06-01T11:50:26.448Z,2.10
2023-06-01T11:52:55.727Z,1.90
2023-06-01T11:55:23.398Z,2.10
2023-06-01T11:57:51.600Z,1.88
2023-06-01T12:00:20.901Z,1.90
2023-06-01T12:02:49.867Z,1.95
2023-06-01T12:05:18.220Z,1.77
2023-06-01T12:07:54.502Z,1.70
2023-06-01T12:12:50.035Z,1.80
2023-06-01T12:15:19.655Z,1.90
2023-06-01T12:20:46.454Z,1.70
2023-06-01T12:23:17.631Z,2.05
2023-06-01T12:25:56.396Z,1.90
2023-06-01T12:28:25.883Z,1.80
2023-06-01T12:31:14.284Z,1.92
2023-06-01T12:33:45.857Z,1.70
2023-06-01T12:36:34.357Z,2.35
2023-06-01T12:39:06.142Z,2.05
2023-06-01T12:41:38.570Z,2.20
2023-06-01T12:44:08.565Z,1.90
2023-06-01T12:46:37.736Z,1.88
2023-06-01T12:49:23.145Z,2.58
2023-06-01T12:51:54.212Z,2.08
2023-06-01T12:54:31.435Z,2.03
2023-06-01T12:56:59.912Z,2.30
2023-06-01T12:59:29.810Z,2.20
2023-06-01T13:01:58.900Z,2.35
2023-06-01T13:04:27.639Z,2.05
2023-06-01T13:06:57.201Z,2.03
2023-06-01T13:09:25.380Z,2.35
2023-06-01T13:11:53.314Z,2.08
2023-06-01T13:14:22.797Z,2.00
2023-06-01T13:16:50.951Z,1.85
2023-06-01T13:19:18.975Z,2.05
2023-06-01T13:21:47.261Z,1.70
2023-06-01T13:24:15.186Z,2.08
2023-06-01T13:26:43.247Z,1.98
2023-06-01T13:29:11.470Z,3.00
2023-06-01T13:31:39.380Z,2.03
2023-06-01T13:34:07.605Z,1.90
2023-06-01T13:36:36.254Z,1.90
2023-06-01T13:39:05.656Z,2.13
2023-06-01T13:41:33.416Z,2.50
2023-06-01T13:44:01.308Z,2.15
2023-06-01T13:46:29.168Z,2.00
2023-06-01T13:48:56.967Z,2.00
2023-06-01T13:51:24.571Z,2.05
2023-06-01T13:53:52.317Z,2.08
2023-06-01T13:56:22.481Z,4.47
2023-06-01T13:58:50.274Z,2.47
2023-06-01T14:01:18.001Z,2.45
2023-06-01T14:03:45.874Z,2.13
2023-06-01T14:06:13.502Z,2.00
2023-06-01T14:08:41.292Z,2.35
2023-06-01T14:11:08.912Z,1.90
2023-06-01T14:13:36.594Z,2.38
2023-06-01T14:16:04.896Z,2.35
2023-06-01T14:18:32.981Z,2.20
2023-06-01T14:21:01.273Z,1.92
2023-06-01T14:23:30.490Z,1.98
2023-06-01T14:25:59.150Z,2.17
2023-06-01T14:28:26.990Z,2.05
2023-06-01T14:30:55.047Z,1.83
2023-06-01T14:33:22.947Z,2.30
2023-06-01T14:35:51.923Z,2.22
2023-06-01T14:38:20.044Z,2.13
2023-06-01T14:40:47.698Z,2.60
2023-06-01T14:43:15.541Z,2.47
2023-06-01T14:45:43.132Z,2.58
2023-06-01T14:48:11.161Z,2.55
2023-06-01T14:50:38.821Z,1.98
2023-06-01T14:53:07.818Z,2.50
2023-06-01T14:55:35.732Z,2.47
2023-06-01T14:58:03.889Z,2.85
2023-06-01T15:00:32.048Z,2.25
2023-06-01T15:02:59.965Z,2.17
2023-06-01T15:05:27.712Z,2.40
2023-06-01T15:07:55.417Z,2.30
2023-06-01T15:10:23.156Z,3.72
2023-06-01T15:12:51.023Z,2.92
2023-06-01T15:15:18.981Z,2.70
2023-06-01T15:17:46.649Z,2.10
2023-06-01T15:20:14.432Z,1.88
2023-06-01T15:22:42.173Z,2.55
2023-06-01T15:25:10.055Z,2.28
2023-06-01T15:27:37.758Z,1.85
2023-06-01T15:30:05.983Z,3.03
2023-06-01T15:32:33.779Z,2.33
2023-06-01T15:35:03.781Z,2.00
2023-06-01T15:37:32.086Z,2.83
2023-06-01T15:39:59.778Z,2.63
2023-06-01T15:42:27.455Z,2.30
2023-06-01T15:44:55.050Z,2.60
2023-06-01T15:47:22.690Z,2.25
2023-06-01T15:49:50.415Z,2.38
2023-06-01T15:52:17.990Z,1.95
2023-06-01T15:54:45.575Z,2.30
2023-06-01T15:57:13.239Z,2.50
2023-06-01T15:59:40.837Z,2.63
2023-06-01T16:02:08.668Z,2.10
2023-06-01T16:04:36.529Z,2.40
2023-06-01T16:07:04.550Z,2.13
2023-06-01T16:09:35.982Z,2.42
2023-06-01T16:12:03.913Z,2.85
2023-06-01T16:14:31.516Z,2.40
2023-06-01T16:17:01.584Z,2.83
2023-06-01T16:19:29.276Z,2.08
2023-06-01T16:21:59.098Z,2.25
2023-06-01T16:24:26.882Z,1.98
2023-06-01T16:26:54.567Z,2.90
2023-06-01T16:29:22.245Z,2.22
2023-06-01T16:31:51.071Z,2.15
2023-06-01T16:34:18.799Z,2.25
2023-06-01T16:36:46.419Z,2.50
2023-06-01T16:39:15.048Z,2.55
2023-06-01T16:41:42.700Z,2.25
2023-06-01T16:44:10.408Z,2.17
2023-06-01T16:46:38.201Z,2.47
2023-06-01T16:49:08.944Z,2.30
2023-06-01T16:51:37.390Z,2.28
2023-06-01T16:54:05.603Z,2.50
2023-06-01T16:56:33.321Z,2.30
2023-06-01T16:59:00.975Z,2.40
2023-06-01T17:01:28.597Z,2.35
2023-06-01T17:03:56.340Z,2.40
2023-06-01T17:06:24.282Z,2.63
2023-06-01T17:08:52.037Z,2.30
2023-06-01T17:11:19.845Z,2.05
2023-06-01T17:13:47.857Z,2.60
2023-06-01T17:16:15.556Z,2.90
2023-06-01T17:18:43.441Z,2.58
2023-06-01T17:21:11.185Z,2.78
2023-06-01T17:23:38.801Z,3.50
2023-06-01T17:26:06.651Z,2.92
2023-06-01T17:28:35.796Z,2.28
2023-06-01T17:31:03.751Z,2.63
2023-06-01T17:33:31.756Z,2.58
2023-06-01T17:35:59.484Z,2.45
2023-06-01T17:38:27.155Z,2.80
2023-06-01T17:40:56.814Z,2.63
2023-06-01T17:43:24.422Z,3.05
2023-06-01T17:45:52.165Z,2.22
2023-06-01T17:48:20.081Z,2.70
2023-06-01T17:50:47.744Z,4.47
2023-06-01T17:53:39.445Z,3.53
2023-06-01T17:56:03.738Z,2.45
2023-06-01T17:58:31.707Z,3.20
2023-06-01T18:00:59.371Z,3.10
2023-06-01T18:03:26.968Z,2.65
2023-06-01T18:05:55.107Z,2.88
2023-06-01T18:08:22.741Z,2.13
2023-06-01T18:10:50.799Z,2.75
2023-06-01T18:13:18.347Z,2.78
2023-06-01T18:15:45.963Z,2.70
2023-06-01T18:18:13.809Z,2.80
2023-06-01T18:20:41.546Z,2.67
2023-06-01T18:23:09.624Z,2.42
2023-06-01T18:25:37.510Z,2.40
2023-06-01T18:28:05.116Z,2.70
2023-06-01T18:30:32.837Z,2.70
2023-06-01T18:33:01.310Z,2.97
2023-06-01T18:35:29.301Z,3.45
2023-06-01T18:37:56.970Z,2.80
2023-06-01T18:40:24.962Z,2.72
2023-06-01T18:42:52.527Z,2.60
2023-06-01T18:45:20.366Z,2.92
2023-06-01T18:47:48.031Z,3.40
2023-06-01T18:50:17.823Z,3.10
2023-06-01T18:52:49.423Z,2.38
2023-06-01T18:55:19.284Z,3.15
2023-06-01T18:57:49.243Z,2.75
2023-06-01T19:00:17.122Z,2.80
2023-06-01T19:02:48.384Z,2.80
2023-06-01T19:05:23.678Z,2.53
2023-06-01T19:07:51.974Z,2.60
2023-06-01T19:10:58.913Z,2.90
2023-06-01T19:13:42.576Z,3.13
2023-06-01T19:16:21.530Z,2.92
2023-06-01T19:18:51.488Z,2.90
2023-06-01T19:21:20.765Z,4.03
2023-06-01T19:23:58.552Z,3.05
2023-06-01T19:26:29.164Z,3.13
2023-06-01T19:29:04.289Z,3.22
2023-06-01T19:31:35.071Z,2.67
2023-06-01T19:34:07.429Z,2.90
2023-06-01T19:36:47.043Z,2.90
2023-06-01T19:39:14.717Z,3.80
2023-06-01T19:41:43.175Z,3.08
2023-06-01T19:44:16.453Z,3.60
2023-06-01T19:46:44.246Z,3.05
2023-06-01T19:49:17.533Z,3.20
2023-06-01T19:51:47.824Z,2.92
2023-06-01T19:54:33.985Z,3.20
2023-06-01T19:57:02.003Z,3.00
2023-06-01T19:59:29.930Z,3.15
2023-06-01T20:02:00.292Z,3.30
2023-06-01T20:04:31.844Z,3.13
2023-06-01T20:07:01.251Z,2.65
2023-06-01T20:09:29.032Z,2.45
2023-06-01T20:11:58.569Z,2.80
2023-06-01T20:14:33.645Z,3.20
2023-06-01T20:17:20.219Z,3.92
2023-06-01T20:19:49.050Z,3.03
2023-06-01T20:22:17.396Z,2.97
2023-06-01T20:24:45.176Z,3.42
2023-06-01T20:27:12.960Z,3.08
2023-06-01T20:29:41.793Z,2.85
2023-06-01T20:32:09.385Z,2.58
2023-06-01T20:34:37.155Z,2.35
2023-06-01T20:37:05.922Z,2.90
2023-06-01T20:39:33.590Z,2.50
2023-06-01T20:42:02.607Z,2.83
2023-06-01T20:44:31.106Z,2.70
2023-06-01T20:46:58.808Z,2.70
2023-06-01T20:49:27.866Z,3.10
2023-06-01T20:51:56.457Z,2.80
2023-06-01T20:54:27.013Z,2.83
2023-06-01T20:56:56.911Z,2.97
2023-06-01T20:59:31.251Z,2.65
2023-06-01T21:02:00.195Z,2.88
2023-06-01T21:04:33.685Z,3.30
2023-06-01T21:07:02.897Z,3.10
2023-06-01T21:09:30.846Z,3.03
2023-06-01T21:11:59.473Z,2.50
2023-06-01T21:14:27.290Z,2.88
2023-06-01T21:16:55.110Z,2.65
2023-06-01T21:19:22.982Z,2.90
2023-06-01T21:21:50.799Z,2.58
2023-06-01T21:24:37.318Z,3.50
2023-06-01T21:27:23.573Z,2.95
2023-06-01T21:30:10.148Z,3.00
2023-06-01T21:32:37.975Z,2.75
2023-06-01T21:35:05.979Z,3.53
2023-06-01T21:37:52.331Z,2.80
2023-06-01T21:40:20.163Z,2.80
2023-06-01T21:42:48.406Z,3.22
2023-06-01T21:45:16.493Z,3.03
2023-06-01T21:47:48.259Z,2.70
2023-06-01T21:50:16.285Z,3.38
2023-06-01T21:52:44.140Z,3.20
2023-06-01T21:55:11.925Z,2.95
2023-06-01T21:57:41.288Z,3.10
2023-06-01T22:00:10.383Z,2.80
2023-06-01T22:02:44.058Z,3.30
2023-06-01T22:05:12.435Z,2.47
2023-06-01T22:07:40.901Z,2.67
2023-06-01T22:10:09.532Z,3.20
2023-06-01T22:12:37.217Z,3.00
2023-06-01T22:15:06.884Z,3.67
2023-06-01T22:17:37.614Z,3.50
2023-06-01T22:20:07.271Z,2.92
2023-06-01T22:22:36.117Z,3.50
2023-06-01T22:25:04.383Z,3.65
2023-06-01T22:27:32.903Z,2.70
2023-06-01T22:30:00.808Z,3.60
2023-06-01T22:32:28.555Z,3.72
2023-06-01T22:34:56.376Z,2.65
2023-06-01T22:37:24.062Z,4.50
2023-06-01T22:40:10.370Z,2.80
2023-06-01T22:42:38.089Z,2.92
2023-06-01T22:45:06.385Z,3.78
2023-06-01T22:47:34.348Z,3.22
2023-06-01T22:50:04.650Z,3.28
2023-06-01T22:52:32.525Z,3.10
2023-06-01T22:55:00.529Z,3.47
2023-06-01T22:57:28.386Z,3.30
2023-06-01T23:00:14.902Z,2.63
2023-06-01T23:02:42.626Z,3.50
2023-06-01T23:05:13.749Z,2.95
2023-06-01T23:07:41.472Z,3.03
2023-06-01T23:10:10.636Z,2.90
2023-06-01T23:12:38.711Z,2.78
2023-06-01T23:15:07.032Z,3.45
2023-06-01T23:17:36.223Z,2.47
2023-06-01T23:20:07.240Z,2.85
2023-06-01T23:22:38.245Z,2.88
2023-06-01T23:25:06.935Z,3.00
2023-06-01T23:27:34.682Z,2.67
2023-06-01T23:30:02.407Z,2.83
2023-06-01T23:32:49.770Z,2.88
2023-06-01T23:35:17.557Z,3.13
2023-06-01T23:37:48.228Z,2.78
2023-06-01T23:40:16.652Z,2.78
2023-06-01T23:42:44.313Z,2.75
2023-06-01T23:45:12.337Z,4.07
2023-06-01T23:47:40.055Z,2.85
2023-06-01T23:50:09.170Z,3.15
2023-06-01T23:52:55.828Z,3.15
2023-06-01T23:55:24.956Z,2.78
2023-06-01T23:57:52.711Z,2.53
